Reklama
Líbí se Vám tento web? Budeme velmi rádi, pokud přidáte hodnocení +1

Seznam meteostanic a jejich METAR

Vyhledat místa podle abecedy:
A B C D E F G H I J K L M N O P Q R S T U V W X Y Z

Filtrovat:

ID stanice:
a/nebo
Název místa (fulltext):
 
Místo (ID)Naposledy načteno 
Yamoussoukro (DIYO) 21.06.2018 00:00 UTC Zobrazit METAR
DIYO 210000Z 18004KT CAVOK 24/23 Q1016 NOSIG
Yangon (VYYY) 21.06.2018 02:00 UTC Zobrazit METAR
VYYY 210200Z 18006KT 7000 FEW018 SCT110 29/26 Q1009
Yaounde (FKYS) 21.06.2018 02:00 UTC Zobrazit METAR
FKYS 210200Z /////KT 7000 FEW003 BKN006 20/19 Q1019 NOSIG
Yerevan (UGEE) Zatím nenačteno  
Reklama

Počasí na Váš email

Emaily jsou bez reklamy a bez spamu



Odhlásit newsletter

Reklama


Lunární kalendář

  • 28.06.
  • 06.07.
  • 13.07.
  • 19.07.



Slunečno.cz na Google+

Reklama


Reklama
Povinné ručení
Reklama




Reklama